Time;durP1;ratioP1;P1;durP2;ratioP2;P2;SDS_P1;SDS_P2;PMS_P1;PMS_P2;Temp;Humidity;BMP_temperature;BMP_pressure;BME280_temperature;BME280_humidity;BME280_pressure;Samples;Min_cycle;Max_cycle;Signal;HPM_P1;HPM_P2
2023/07/04 00:01:18;;;;;;;7.12;4.42;;;;;;;19.68;53.23;100192.02;1744017;81;21032;-63
2023/07/04 00:03:54;;;;;;;7.87;4.53;;;;;;;19.65;53.35;100189.77;1743887;81;21055;-63
2023/07/04 00:06:27;;;;;;;9.15;4.90;;;;;;;19.65;53.38;100193.93;1744125;82;21521;-64
2023/07/04 00:08:55;;;;;;;6.53;4.60;;;;;;;19.61;53.60;100196.39;1744085;82;21036;-63
2023/07/04 00:11:24;;;;;;;8.23;4.80;;;;;;;19.57;53.91;100193.30;1744119;82;21001;-64
2023/07/04 00:13:53;;;;;;;10.05;4.65;;;;;;;19.54;54.02;100194.38;1744062;82;21012;-64
2023/07/04 00:16:24;;;;;;;9.83;4.80;;;;;;;19.48;54.01;100198.98;1743884;82;21060;-64
2023/07/04 00:18:52;;;;;;;7.97;4.75;;;;;;;19.43;54.16;100202.25;1743907;81;21507;-62
2023/07/04 00:21:22;;;;;;;9.13;5.45;;;;;;;19.43;54.46;100200.86;1733529;82;21079;-64
2023/07/04 00:23:54;;;;;;;7.85;5.00;;;;;;;19.41;54.69;100197.50;1744231;82;21041;-64
2023/07/04 00:26:24;;;;;;;7.87;5.10;;;;;;;19.40;54.81;100208.33;1743898;81;21483;-64
2023/07/04 00:28:53;;;;;;;8.88;5.45;;;;;;;19.37;54.86;100201.91;1744053;82;21016;-64
2023/07/04 00:31:24;;;;;;;14.33;5.80;;;;;;;19.35;55.02;100204.10;1743898;82;21484;-63
2023/07/04 00:33:53;;;;;;;12.15;5.67;;;;;;;19.32;55.06;100209.08;1743945;81;21075;-64
2023/07/04 00:36:23;;;;;;;9.43;5.40;;;;;;;19.32;55.18;100211.86;1744014;81;21730;-63
2023/07/04 00:38:56;;;;;;;10.43;5.92;;;;;;;19.36;55.36;100218.28;1743985;81;21032;-65
2023/07/04 00:41:27;;;;;;;14.45;6.17;;;;;;;19.31;55.54;100219.06;1743978;82;21036;-63
2023/07/04 00:44:13;;;;;;;10.85;5.67;;;;;;;19.27;55.65;100222.91;1744136;81;21019;-64
2023/07/04 00:47:10;;;;;;;9.65;5.80;;;;;;;19.26;55.81;100214.28;1744005;81;21476;-64
2023/07/04 00:49:43;;;;;;;9.78;5.55;;;;;;;19.23;56.11;100218.13;1744301;82;21075;-64
2023/07/04 00:52:28;;;;;;;8.93;5.53;;;;;;;19.20;56.33;100214.48;1733643;82;21521;-63
2023/07/04 00:54:59;;;;;;;10.93;5.70;;;;;;;19.15;56.57;100214.42;1734467;81;21526;-64
2023/07/04 00:57:31;;;;;;;10.10;6.05;;;;;;;19.12;56.77;100222.72;1733879;82;21067;-64
2023/07/04 01:00:19;;;;;;;11.28;5.95;;;;;;;19.09;56.85;100223.78;1743728;82;21052;-63
2023/07/04 01:02:48;;;;;;;12.03;5.85;;;;;;;18.99;57.08;100228.11;1744088;81;21016;-64
2023/07/04 01:05:25;;;;;;;9.43;5.83;;;;;;;18.92;57.44;100232.17;1744288;82;21024;-64
2023/07/04 01:08:02;;;;;;;7.85;5.53;;;;;;;18.84;57.70;100224.25;1718415;82;21059;-63
2023/07/04 01:10:37;;;;;;;10.98;5.80;;;;;;;18.82;57.97;100229.23;1711920;84;21014;-62
2023/07/04 01:13:28;;;;;;;8.90;5.95;;;;;;;18.80;58.19;100222.55;1711626;82;21042;-63
2023/07/04 01:15:57;;;;;;;10.43;5.47;;;;;;;18.80;58.33;100230.87;1711200;83;21474;-64
2023/07/04 01:18:29;;;;;;;10.55;5.75;;;;;;;18.80;58.27;100231.41;1711907;84;21050;-63
2023/07/04 01:20:59;;;;;;;7.37;5.42;;;;;;;18.78;58.50;100233.61;1711782;84;21075;-64
2023/07/04 01:23:55;;;;;;;8.45;5.70;;;;;;;18.73;58.76;100237.16;1711634;84;21111;-62
2023/07/04 01:26:33;;;;;;;11.40;6.12;;;;;;;18.67;58.83;100239.56;1711995;84;20975;-63
2023/07/04 01:29:03;;;;;;;14.18;5.90;;;;;;;18.61;58.96;100243.32;1695639;84;21038;-64
2023/07/04 01:31:32;;;;;;;12.28;5.50;;;;;;;18.61;59.10;100249.75;1711537;84;21494;-63
2023/07/04 01:34:04;;;;;;;9.18;5.25;;;;;;;18.63;58.87;100250.33;1711475;84;21058;-63
2023/07/04 01:36:37;;;;;;;11.03;5.90;;;;;;;18.65;58.94;100248.69;1711564;82;21038;-63
2023/07/04 01:39:07;;;;;;;9.88;5.95;;;;;;;18.61;59.07;100243.32;1711816;84;21062;-65
2023/07/04 01:41:39;;;;;;;10.20;6.10;;;;;;;18.63;59.13;100246.16;1684142;84;21490;-64
2023/07/04 01:44:08;;;;;;;13.50;6.30;;;;;;;18.63;59.12;100243.94;1711555;82;21110;-64
2023/07/04 01:46:39;;;;;;;11.70;6.45;;;;;;;18.62;59.22;100247.27;1711586;84;21042;-64
2023/07/04 01:49:09;;;;;;;13.05;6.40;;;;;;;18.60;59.36;100248.03;1711755;83;21058;-65
2023/07/04 01:51:40;;;;;;;10.28;6.08;;;;;;;18.58;59.39;100246.06;1711664;84;21473;-64
2023/07/04 01:54:09;;;;;;;11.18;6.12;;;;;;;18.59;59.46;100251.91;1711720;82;21190;-63
2023/07/04 01:56:38;;;;;;;10.35;5.72;;;;;;;18.58;59.68;100254.93;1711686;82;21055;-64
2023/07/04 01:59:07;;;;;;;13.40;5.85;;;;;;;18.52;59.71;100251.78;1683540;84;21014;-64
2023/07/04 02:01:38;;;;;;;9.33;5.92;;;;;;;18.51;59.78;100263.43;1711853;82;21450;-64
2023/07/04 02:04:07;;;;;;;11.30;5.85;;;;;;;18.52;60.01;100267.05;1711582;82;21439;-64
2023/07/04 02:06:35;;;;;;;11.70;6.35;;;;;;;18.49;60.26;100264.23;1711886;83;21010;-64
2023/07/04 02:09:04;;;;;;;8.63;5.55;;;;;;;18.48;60.47;100267.26;1741222;81;21040;-63
2023/07/04 02:11:33;;;;;;;10.70;6.20;;;;;;;18.45;60.68;100270.53;1743869;82;21047;-64
2023/07/04 02:14:03;;;;;;;9.90;5.85;;;;;;;18.44;60.87;100274.41;1743893;82;21043;-64
2023/07/04 02:16:32;;;;;;;11.93;6.10;;;;;;;18.40;61.06;100276.00;1744089;82;21008;-64
2023/07/04 02:19:01;;;;;;;9.65;5.97;;;;;;;18.36;61.33;100271.51;1744215;82;21008;-63
2023/07/04 02:21:30;;;;;;;9.65;5.75;;;;;;;18.32;61.58;100272.55;1743973;82;21031;-65
2023/07/04 02:24:02;;;;;;;8.10;5.75;;;;;;;18.28;61.78;100269.99;1743754;81;21467;-64
2023/07/04 02:26:32;;;;;;;14.53;6.20;;;;;;;18.31;61.78;100268.10;1744103;82;20988;-63
2023/07/04 02:29:01;;;;;;;8.45;6.05;;;;;;;18.32;61.71;100268.39;1744177;82;21432;-65
2023/07/04 02:31:32;;;;;;;11.10;6.60;;;;;;;18.31;61.74;100267.27;1743999;81;21464;-64
2023/07/04 02:34:01;;;;;;;12.37;6.65;;;;;;;18.32;61.79;100267.01;1744103;82;21043;-65
2023/07/04 02:36:30;;;;;;;11.88;6.33;;;;;;;18.33;61.85;100265.08;1743996;81;21695;-64
2023/07/04 02:39:02;;;;;;;9.95;6.25;;;;;;;18.34;61.90;100266.21;1744140;82;21016;-64
2023/07/04 02:41:33;;;;;;;9.98;6.40;;;;;;;18.34;61.94;100265.37;1744179;82;21063;-64
2023/07/04 02:44:02;;;;;;;11.43;6.70;;;;;;;18.32;62.00;100271.17;1743972;82;21000;-65
2023/07/04 02:46:31;;;;;;;9.90;5.92;;;;;;;18.28;62.19;100269.99;1744333;82;21004;-63
2023/07/04 02:49:04;;;;;;;11.53;6.47;;;;;;;18.26;62.49;100278.27;1744461;81;21059;-63
2023/07/04 02:51:33;;;;;;;14.30;7.40;;;;;;;18.22;62.84;100275.70;1744247;82;21008;-64
2023/07/04 02:54:05;;;;;;;13.98;6.97;;;;;;;18.13;63.31;100276.63;1744279;82;21071;-64
2023/07/04 02:56:38;;;;;;;13.15;7.47;;;;;;;18.08;63.74;100272.92;1743875;81;21040;-63
2023/07/04 02:59:07;;;;;;;13.70;7.15;;;;;;;18.05;64.02;100278.42;1743956;82;21526;-63
2023/07/04 03:01:36;;;;;;;14.15;7.12;;;;;;;18.04;64.16;100277.59;1744117;82;21043;-63
2023/07/04 03:04:06;;;;;;;13.32;7.42;;;;;;;18.09;64.23;100280.16;1744054;81;21028;-64
2023/07/04 03:06:36;;;;;;;12.43;7.28;;;;;;;18.12;64.36;100287.42;1744132;81;21060;-64
2023/07/04 03:09:05;;;;;;;14.78;7.50;;;;;;;18.15;64.45;100293.86;1743871;82;21024;-63
2023/07/04 03:11:35;;;;;;;14.20;8.03;;;;;;;18.19;64.48;100293.66;1743963;82;21063;-63
2023/07/04 03:14:03;;;;;;;13.15;7.25;;;;;;;18.24;64.29;100298.48;1743910;82;21517;-65
2023/07/04 03:16:35;;;;;;;14.43;7.95;;;;;;;18.27;64.21;100300.75;1710393;82;21115;-63
2023/07/04 03:19:04;;;;;;;15.28;8.08;;;;;;;18.32;64.12;100298.06;1744252;82;21043;-63
2023/07/04 03:21:34;;;;;;;14.28;7.85;;;;;;;18.39;63.87;100298.74;1743886;82;21462;-65
2023/07/04 03:24:03;;;;;;;16.05;8.25;;;;;;;18.46;63.73;100304.97;1733630;82;21024;-63
2023/07/04 03:26:36;;;;;;;16.05;8.63;;;;;;;18.51;63.66;100305.05;1744105;81;21019;-65
2023/07/04 03:29:06;;;;;;;17.17;8.38;;;;;;;18.58;63.65;100308.50;1743960;81;21091;-65
2023/07/04 03:31:38;;;;;;;14.33;7.72;;;;;;;18.63;64.01;100307.22;1744250;82;21428;-64
2023/07/04 03:34:08;;;;;;;13.98;7.90;;;;;;;18.69;64.23;100306.21;1743866;82;21065;-63
2023/07/04 03:36:38;;;;;;;13.40;7.95;;;;;;;18.74;64.01;100302.67;1743919;82;21064;-63
2023/07/04 03:39:07;;;;;;;18.95;8.55;;;;;;;18.80;64.03;100300.81;1743970;82;21047;-65
2023/07/04 03:41:36;;;;;;;14.55;8.28;;;;;;;18.88;63.91;100307.36;1743929;82;21055;-64
2023/07/04 03:44:05;;;;;;;16.45;8.68;;;;;;;18.89;64.06;100302.09;1744078;82;21083;-64
2023/07/04 03:46:33;;;;;;;15.70;8.48;;;;;;;18.91;64.13;100304.91;1744247;82;21053;-65
2023/07/04 03:49:01;;;;;;;16.32;8.88;;;;;;;18.95;64.15;100306.62;1744076;82;21023;-65
2023/07/04 03:51:32;;;;;;;12.53;7.90;;;;;;;19.02;64.14;100304.52;1743903;82;21444;-65
2023/07/04 03:54:01;;;;;;;13.08;8.18;;;;;;;19.05;63.97;100302.61;1744076;82;21004;-64
2023/07/04 03:56:30;;;;;;;17.60;8.90;;;;;;;19.10;63.94;100310.17;1744006;82;21074;-64
2023/07/04 03:59:00;;;;;;;16.80;8.58;;;;;;;19.16;63.69;100300.81;1733544;82;21056;-64
2023/07/04 04:01:28;;;;;;;14.47;8.23;;;;;;;19.22;63.60;100300.63;1744236;82;21067;-64
2023/07/04 04:03:58;;;;;;;12.40;7.87;;;;;;;19.28;63.52;100309.32;1744037;82;21028;-63
2023/07/04 04:06:27;;;;;;;18.07;8.75;;;;;;;19.35;63.31;100311.91;1744027;82;21110;-63
2023/07/04 04:08:56;;;;;;;11.38;7.87;;;;;;;19.43;63.10;100310.07;1751644;82;21047;-64
2023/07/04 04:11:25;;;;;;;20.95;9.30;;;;;;;19.52;62.97;100311.88;1757168;82;21031;-65
2023/07/04 04:13:54;;;;;;;15.45;7.85;;;;;;;19.56;62.86;100320.03;1757301;80;21063;-64
2023/07/04 04:16:23;;;;;;;16.42;7.78;;;;;;;19.62;62.74;100311.48;1757166;81;21521;-63
2023/07/04 04:18:52;;;;;;;23.20;8.68;;;;;;;19.69;62.60;100321.02;1757296;82;21455;-64
2023/07/04 04:21:21;;;;;;;15.65;7.62;;;;;;;19.80;61.81;100319.20;1757562;82;21015;-63
2023/07/04 04:23:54;;;;;;;14.40;8.05;;;;;;;19.94;61.12;100318.53;1757389;82;20999;-63
2023/07/04 04:26:24;;;;;;;10.55;7.08;;;;;;;20.05;60.01;100322.26;1757421;82;21047;-64
2023/07/04 04:28:55;;;;;;;14.40;7.30;;;;;;;20.17;58.79;100319.34;1757139;82;21469;-63
2023/07/04 04:31:24;;;;;;;14.35;7.28;;;;;;;20.30;57.77;100327.27;1757458;82;21019;-64
2023/07/04 04:33:53;;;;;;;12.13;7.60;;;;;;;20.42;57.18;100327.12;1757183;82;21011;-65
2023/07/04 04:36:21;;;;;;;12.82;7.70;;;;;;;20.51;56.51;100329.72;1757134;82;21097;-64
2023/07/04 04:38:50;;;;;;;14.73;7.50;;;;;;;20.63;56.14;100336.50;1757367;82;21011;-63
2023/07/04 04:41:19;;;;;;;18.10;8.15;;;;;;;20.73;55.89;100336.58;1724374;82;21031;-62
2023/07/04 04:43:50;;;;;;;19.02;7.83;;;;;;;20.84;55.57;100339.77;1757284;82;21050;-65
2023/07/04 04:46:20;;;;;;;29.37;16.10;;;;;;;20.93;55.39;100339.55;1757401;82;21055;-64
2023/07/04 04:48:50;;;;;;;16.95;9.83;;;;;;;21.05;55.00;100343.53;1757070;82;21487;-66
2023/07/04 04:51:20;;;;;;;18.60;8.33;;;;;;;21.16;54.71;100345.28;1757111;81;21043;-64
2023/07/04 04:53:49;;;;;;;23.65;9.38;;;;;;;21.27;54.48;100349.00;1757439;82;21106;-64
2023/07/04 04:56:19;;;;;;;14.87;7.85;;;;;;;21.37;54.12;100349.05;1756996;82;21082;-65
2023/07/04 04:58:48;;;;;;;16.12;7.75;;;;;;;21.48;53.64;100344.69;1756955;82;21537;-65
2023/07/04 05:01:22;;;;;;;14.47;7.62;;;;;;;21.62;53.36;100343.64;1757057;81;21925;-65
2023/07/04 05:03:54;;;;;;;13.85;7.42;;;;;;;21.82;52.89;100354.88;1756719;82;21464;-63
2023/07/04 05:06:25;;;;;;;13.13;7.10;;;;;;;22.11;52.21;100352.52;1756965;82;21000;-64
2023/07/04 05:08:53;;;;;;;13.83;6.40;;;;;;;22.44;50.56;100353.14;1756971;80;21008;-63
2023/07/04 05:11:23;;;;;;;14.73;6.42;;;;;;;22.81;49.38;100349.30;1757282;82;21003;-64
2023/07/04 05:13:54;;;;;;;14.45;6.15;;;;;;;23.17;47.81;100347.30;1756875;82;21466;-65
2023/07/04 05:16:23;;;;;;;11.63;6.10;;;;;;;23.50;45.61;100343.05;1757220;82;21062;-63
2023/07/04 05:18:51;;;;;;;11.35;5.78;;;;;;;23.83;44.44;100346.59;1757402;80;20989;-63
2023/07/04 05:21:22;;;;;;;11.48;5.67;;;;;;;24.15;43.54;100345.33;1757414;82;20991;-64
2023/07/04 05:23:52;;;;;;;9.23;5.75;;;;;;;24.45;42.60;100345.16;1757415;80;21055;-66
2023/07/04 05:26:25;;;;;;;13.62;5.78;;;;;;;24.75;41.96;100352.52;1757154;82;21505;-64
2023/07/04 05:28:56;;;;;;;9.68;5.72;;;;;;;25.06;41.10;100354.52;1757326;81;21062;-63
2023/07/04 05:31:27;;;;;;;16.52;7.97;;;;;;;25.34;40.04;100352.82;1757303;82;21102;-63
2023/07/04 05:33:57;;;;;;;9.98;6.03;;;;;;;25.64;40.01;100348.86;1757080;81;21473;-64
2023/07/04 05:36:30;;;;;;;10.08;5.67;;;;;;;25.96;39.33;100349.61;1757217;82;21023;-64
2023/07/04 05:39:02;;;;;;;17.07;5.87;;;;;;;26.27;38.37;100352.02;1740579;82;21078;-65
2023/07/04 05:41:33;;;;;;;10.32;5.25;;;;;;;26.54;37.46;100351.62;1757377;82;21024;-64
2023/07/04 05:44:05;;;;;;;9.18;5.30;;;;;;;26.76;36.43;100353.82;1757366;82;21439;-66
2023/07/04 05:46:35;;;;;;;8.15;4.85;;;;;;;26.93;35.57;100352.42;1757512;82;21030;-65
2023/07/04 05:49:04;;;;;;;9.73;5.35;;;;;;;27.08;34.30;100359.21;1757380;82;21015;-65
2023/07/04 05:51:33;;;;;;;13.10;5.10;;;;;;;27.24;33.91;100355.55;1757409;81;20995;-64
2023/07/04 05:54:02;;;;;;;10.85;5.37;;;;;;;27.37;33.97;100350.54;1757294;82;20972;-64
2023/07/04 05:56:32;;;;;;;9.40;5.30;;;;;;;27.50;33.34;100346.91;1757341;80;21019;-66
2023/07/04 05:59:02;;;;;;;10.70;4.90;;;;;;;27.70;32.98;100357.78;1757315;82;21034;-65
2023/07/04 06:01:38;;;;;;;11.28;5.25;;;;;;;27.89;32.15;100352.61;1757408;82;21000;-63
2023/07/04 06:04:08;;;;;;;14.18;5.40;;;;;;;28.08;32.05;100355.59;1757635;81;21031;-64
2023/07/04 06:06:44;;;;;;;20.02;5.58;;;;;;;28.29;31.21;100351.77;1757273;82;21023;-64
2023/07/04 06:09:15;;;;;;;14.78;6.35;;;;;;;28.44;31.57;100359.03;1757074;80;21471;-64
2023/07/04 06:11:48;;;;;;;11.97;5.55;;;;;;;28.50;31.51;100365.38;1757365;82;21050;-65
2023/07/04 06:14:24;;;;;;;14.33;8.38;;;;;;;28.56;31.41;100359.88;1757442;82;21027;-64
2023/07/04 06:16:55;;;;;;;12.30;5.80;;;;;;;28.70;31.40;100360.69;1757459;82;21471;-63
2023/07/04 06:19:24;;;;;;;12.80;5.72;;;;;;;28.90;31.40;100360.78;1757348;82;21031;-65
2023/07/04 06:21:53;;;;;;;10.63;5.10;;;;;;;29.09;30.48;100367.62;1757124;82;21051;-64
2023/07/04 06:24:22;;;;;;;13.50;5.20;;;;;;;29.28;30.48;100369.11;1757158;82;21062;-65
2023/07/04 06:26:51;;;;;;;8.83;5.25;;;;;;;29.37;30.06;100366.33;1757371;82;21028;-64
2023/07/04 06:29:20;;;;;;;11.05;4.92;;;;;;;29.38;29.92;100377.05;1757632;82;21027;-64
2023/07/04 06:31:50;;;;;;;8.53;5.05;;;;;;;29.51;29.94;100370.50;1757812;81;21031;-64
2023/07/04 06:34:19;;;;;;;9.60;5.10;;;;;;;29.62;29.46;100374.70;1757310;82;21027;-64
2023/07/04 06:36:48;;;;;;;10.58;5.67;;;;;;;29.59;29.36;100370.53;1757153;82;21524;-66
2023/07/04 06:39:17;;;;;;;10.43;5.78;;;;;;;29.61;29.41;100377.27;1757351;82;21015;-65
2023/07/04 06:41:49;;;;;;;14.30;5.97;;;;;;;29.77;29.42;100378.50;1757517;82;21455;-65
2023/07/04 06:44:20;;;;;;;12.03;5.90;;;;;;;30.00;28.70;100365.72;1721259;83;21051;-65
2023/07/04 06:46:49;;;;;;;9.83;5.12;;;;;;;30.11;28.52;100374.17;1692390;85;21504;-65
2023/07/04 06:49:18;;;;;;;11.45;5.40;;;;;;;30.24;28.52;100368.95;1703451;84;21016;-66
2023/07/04 06:51:47;;;;;;;10.65;4.92;;;;;;;30.44;27.95;100371.14;1667490;85;21090;-64
2023/07/04 06:54:17;;;;;;;8.38;5.28;;;;;;;30.63;27.37;100374.29;1703198;84;21040;-67
2023/07/04 06:56:45;;;;;;;12.98;6.10;;;;;;;30.71;27.18;100373.45;1692762;85;21077;-64
2023/07/04 06:59:14;;;;;;;10.58;6.78;;;;;;;30.85;27.39;100369.28;1703159;84;21064;-64
2023/07/04 07:01:42;;;;;;;11.60;6.22;;;;;;;30.96;27.21;100375.44;1692437;85;21476;-64
2023/07/04 07:04:15;;;;;;;12.98;6.20;;;;;;;30.99;27.12;100379.59;1703177;84;21542;-65
2023/07/04 07:06:48;;;;;;;11.12;6.28;;;;;;;30.97;26.98;100379.92;1692689;85;21034;-65
2023/07/04 07:09:17;;;;;;;8.60;5.72;;;;;;;31.03;27.06;100370.09;1702336;84;21115;-63
2023/07/04 07:11:47;;;;;;;8.13;5.33;;;;;;;31.12;26.76;100365.83;1752181;81;21481;-64
2023/07/04 07:14:16;;;;;;;9.13;5.30;;;;;;;31.28;26.50;100367.02;1752027;82;21081;-64
2023/07/04 07:16:45;;;;;;;8.93;5.12;;;;;;;31.47;26.17;100381.62;1751962;81;21573;-64
2023/07/04 07:19:15;;;;;;;9.70;5.10;;;;;;;31.72;25.73;100379.88;1733059;82;21067;-64
2023/07/04 07:21:44;;;;;;;7.35;5.22;;;;;;;31.90;25.91;100373.58;1733791;82;21024;-64
2023/07/04 07:24:14;;;;;;;9.55;5.42;;;;;;;31.95;25.63;100363.47;1751712;82;21081;-64
2023/07/04 07:26:43;;;;;;;6.67;5.00;;;;;;;32.09;25.24;100360.38;1751805;82;21062;-65
2023/07/04 07:29:12;;;;;;;12.37;5.47;;;;;;;32.30;25.05;100367.52;1751917;81;21460;-65
2023/07/04 07:31:41;;;;;;;8.20;5.60;;;;;;;32.35;24.90;100365.31;1752167;82;21000;-65
2023/07/04 07:34:10;;;;;;;13.30;5.53;;;;;;;32.27;24.81;100370.47;1751892;82;20996;-65
2023/07/04 07:36:41;;;;;;;11.18;5.83;;;;;;;32.29;25.03;100368.70;1733074;82;21059;-64
2023/07/04 07:39:13;;;;;;;7.97;5.45;;;;;;;32.42;24.91;100369.02;1751961;82;21028;-66
2023/07/04 07:41:45;;;;;;;8.33;5.28;;;;;;;32.45;24.55;100368.33;1733637;82;21078;-63
2023/07/04 07:44:16;;;;;;;8.45;5.33;;;;;;;32.27;24.37;100374.72;1751856;82;21055;-64
2023/07/04 07:46:45;;;;;;;12.70;9.13;;;;;;;32.01;24.66;100372.02;1751718;80;21032;-65
2023/07/04 07:49:13;;;;;;;15.00;6.40;;;;;;;31.85;24.66;100367.48;1751820;80;21067;-68
2023/07/04 07:51:43;;;;;;;8.03;5.10;;;;;;;31.74;24.58;100363.96;1741076;80;21034;-65
2023/07/04 07:54:13;;;;;;;9.30;5.35;;;;;;;31.74;24.97;100367.62;1718972;83;21063;-66
2023/07/04 07:56:44;;;;;;;8.53;5.15;;;;;;;31.89;24.42;100369.08;1711259;83;21459;-65
2023/07/04 07:59:13;;;;;;;9.13;5.28;;;;;;;31.97;24.46;100368.79;1751633;82;21039;-65
2023/07/04 08:01:42;;;;;;;9.05;5.25;;;;;;;32.14;23.98;100373.77;1752073;80;21032;-66
2023/07/04 08:04:11;;;;;;;9.05;5.15;;;;;;;32.37;23.53;100371.48;1751779;82;21673;-66
2023/07/04 08:06:43;;;;;;;9.13;5.40;;;;;;;32.56;23.17;100383.80;1751591;82;21027;-65
2023/07/04 08:09:16;;;;;;;9.93;6.28;;;;;;;32.63;23.42;100377.56;1750387;82;21713;-66
2023/07/04 08:11:45;;;;;;;17.25;5.10;;;;;;;32.74;23.70;100383.89;1743960;82;21023;-66
2023/07/04 08:14:15;;;;;;;10.28;5.12;;;;;;;32.74;23.57;100378.80;1743542;82;21496;-66
2023/07/04 08:16:53;;;;;;;10.35;5.90;;;;;;;32.77;23.93;100373.85;1743829;82;21552;-66
2023/07/04 08:19:24;;;;;;;9.38;5.37;;;;;;;32.88;24.03;100374.29;1743675;82;21043;-68
2023/07/04 08:21:54;;;;;;;8.08;5.60;;;;;;;33.03;23.51;100370.80;1723193;82;20991;-66
2023/07/04 08:24:24;;;;;;;11.43;6.42;;;;;;;33.12;23.59;100367.88;1743788;81;21086;-66
2023/07/04 08:26:54;;;;;;;11.48;5.35;;;;;;;33.18;23.60;100374.43;1743660;82;21504;-65
2023/07/04 08:29:24;;;;;;;10.23;5.42;;;;;;;33.29;23.28;100371.98;1743708;82;21419;-66
2023/07/04 08:31:53;;;;;;;11.88;5.67;;;;;;;33.32;23.54;100375.56;1743748;82;21003;-65
2023/07/04 08:34:22;;;;;;;7.25;5.35;;;;;;;33.33;23.28;100370.13;1723545;82;21455;-65
2023/07/04 08:36:52;;;;;;;11.48;5.65;;;;;;;33.31;22.88;100367.63;1744217;82;21074;-66
2023/07/04 08:39:21;;;;;;;10.90;6.25;;;;;;;33.12;23.27;100363.61;1743570;82;21050;-65
2023/07/04 08:41:59;;;;;;;12.73;7.65;;;;;;;32.95;23.53;100367.45;1743652;82;21262;-65
2023/07/04 08:44:44;;;;;;;9.48;5.87;;;;;;;32.98;23.93;100371.84;1743661;82;21107;-66
2023/07/04 08:47:14;;;;;;;8.30;5.03;;;;;;;33.09;23.39;100365.97;1723594;82;21074;-66
2023/07/04 08:49:59;;;;;;;10.18;5.67;;;;;;;33.08;23.93;100372.83;1743691;82;21459;-65
2023/07/04 08:52:42;;;;;;;;;;;;;;;33.20;23.56;100376.92;1746433;82;21035;-66
2023/07/04 08:55:13;;;;;;;8.85;5.55;;;;;;;33.24;23.58;100365.09;1730459;82;20160;-67
2023/07/04 08:57:47;;;;;;;8.63;5.47;;;;;;;33.19;23.10;100375.27;1749398;82;21039;-66
2023/07/04 09:00:37;;;;;;;9.13;5.17;;;;;;;33.03;23.20;100368.79;1749291;82;21503;-68
2023/07/04 09:03:16;;;;;;;9.70;5.53;;;;;;;32.97;23.78;100367.94;1665834;85;21055;-66
2023/07/04 09:06:06;;;;;;;8.58;5.45;;;;;;;33.12;23.17;100362.19;1749464;82;21062;-67
2023/07/04 09:09:20;;;;;;;12.45;8.60;;;;;;;33.07;22.74;100362.65;1749415;82;21110;-67
2023/07/04 09:11:49;;;;;;;6.60;5.10;;;;;;;32.62;23.39;100351.78;1749262;82;21067;-67
2023/07/04 09:14:53;;;;;;;8.78;5.53;;;;;;;32.01;23.96;100347.09;1749296;82;21007;-67
2023/07/04 09:17:32;;;;;;;8.43;5.45;;;;;;;31.72;24.21;100350.72;1677724;82;21043;-65
2023/07/04 09:20:04;;;;;;;7.83;5.42;;;;;;;31.43;24.83;100340.98;1687562;85;21011;-66
2023/07/04 09:22:35;;;;;;;8.88;5.85;;;;;;;31.54;25.17;100343.69;1749328;82;21169;-66
2023/07/04 09:25:04;;;;;;;8.15;5.35;;;;;;;31.78;24.31;100352.19;1726706;82;21023;-68
2023/07/04 09:27:35;;;;;;;8.08;4.83;;;;;;;31.91;24.02;100348.90;1687659;85;21031;-66
2023/07/04 09:30:06;;;;;;;12.63;5.97;;;;;;;31.97;23.66;100344.70;1687568;85;21046;-67
2023/07/04 09:32:35;;;;;;;9.33;5.75;;;;;;;31.89;23.55;100337.08;1726781;82;21039;-67
2023/07/04 09:35:05;;;;;;;8.58;5.40;;;;;;;31.65;24.18;100344.14;1687492;85;21027;-67
2023/07/04 09:37:36;;;;;;;12.58;5.92;;;;;;;31.55;24.59;100340.27;1687472;85;21455;-67
2023/07/04 09:40:06;;;;;;;12.07;5.80;;;;;;;31.49;24.50;100343.88;1643759;85;21104;-66
2023/07/04 09:42:41;;;;;;;7.33;5.00;;;;;;;31.58;24.35;100345.25;1687366;85;21139;-66
2023/07/04 09:45:13;;;;;;;9.63;5.60;;;;;;;31.63;23.94;100342.23;1687002;85;21530;-65
2023/07/04 09:47:45;;;;;;;9.28;5.62;;;;;;;31.57;24.08;100338.52;1687428;85;21463;-65
2023/07/04 09:50:26;;;;;;;10.08;5.40;;;;;;;31.52;23.82;100340.95;1687663;85;21059;-67
2023/07/04 09:53:08;;;;;;;9.23;5.42;;;;;;;31.47;23.94;100342.55;1749549;82;21066;-66
2023/07/04 09:55:40;;;;;;;13.60;6.58;;;;;;;31.40;23.84;100340.24;1748112;82;21077;-67
2023/07/04 09:58:22;;;;;;;7.12;5.05;;;;;;;31.36;23.83;100342.67;1743970;82;21078;-67
2023/07/04 10:01:15;;;;;;;10.70;4.90;;;;;;;31.34;23.70;100343.02;1743959;82;21100;-67
2023/07/04 10:03:45;;;;;;;9.63;5.60;;;;;;;31.36;23.71;100351.17;1743837;82;21029;-67
2023/07/04 10:06:29;;;;;;;9.93;5.60;;;;;;;31.27;23.51;100347.53;1723384;82;21089;-67
2023/07/04 10:08:58;;;;;;;9.80;5.00;;;;;;;31.12;23.41;100339.77;1725284;82;21290;-67
2023/07/04 10:11:35;;;;;;;8.25;5.00;;;;;;;30.96;23.96;100344.30;1743727;82;21112;-67
2023/07/04 10:14:09;;;;;;;9.28;5.12;;;;;;;30.90;23.86;100345.64;1744089;82;21096;-68
2023/07/04 10:16:50;;;;;;;7.50;5.70;;;;;;;30.81;24.35;100347.66;1743943;82;21084;-67
2023/07/04 10:19:21;;;;;;;10.90;5.65;;;;;;;30.80;23.78;100338.92;1743798;82;20997;-68
2023/07/04 10:21:53;;;;;;;7.97;5.42;;;;;;;30.82;24.04;100338.00;1743795;82;21092;-68
2023/07/04 10:24:25;;;;;;;7.80;5.03;;;;;;;30.84;23.75;100337.91;1743902;82;20997;-68
2023/07/04 10:26:59;;;;;;;13.25;5.50;;;;;;;30.87;23.87;100337.24;1743739;82;21033;-68
2023/07/04 10:29:39;;;;;;;7.10;4.87;;;;;;;30.85;23.74;100339.58;1723240;82;21542;-69
2023/07/04 10:32:13;;;;;;;9.90;5.90;;;;;;;30.81;23.76;100340.58;1743887;82;21060;-67
2023/07/04 10:34:46;;;;;;;8.43;4.75;;;;;;;30.79;23.63;100337.26;1723276;82;21065;-68
2023/07/04 10:37:26;;;;;;;11.22;5.37;;;;;;;30.81;23.83;100335.75;1743866;82;21118;-68
2023/07/04 10:40:00;;;;;;;7.90;4.70;;;;;;;30.82;23.97;100338.83;1743743;82;21068;-69
2023/07/04 10:42:40;;;;;;;12.37;5.42;;;;;;;30.85;24.14;100341.58;1743722;82;21044;-67
2023/07/04 10:45:09;;;;;;;11.68;8.28;;;;;;;30.92;24.38;100331.99;1743851;82;21057;-68
2023/07/04 10:47:38;;;;;;;8.98;5.53;;;;;;;31.01;23.62;100335.64;1743878;82;21091;-66
2023/07/04 10:50:17;;;;;;;11.88;4.95;;;;;;;31.04;23.18;100339.20;1743893;82;21017;-66
2023/07/04 10:52:48;;;;;;;8.48;4.80;;;;;;;30.82;23.48;100329.52;1741476;82;21498;-66
2023/07/04 10:55:31;;;;;;;11.50;5.42;;;;;;;30.61;23.61;100327.95;1743685;82;21013;-65
2023/07/04 10:58:14;;;;;;;10.15;5.28;;;;;;;30.38;24.36;100325.81;1734747;82;21180;-68
2023/07/04 11:00:47;;;;;;;14.20;5.50;;;;;;;30.34;24.59;100326.81;1744063;82;21024;-66
2023/07/04 11:03:24;;;;;;;9.30;6.08;;;;;;;30.42;24.35;100322.58;1743643;82;21234;-67
2023/07/04 11:05:55;;;;;;;8.45;5.30;;;;;;;30.53;24.07;100328.14;1743894;82;21054;-67
2023/07/04 11:08:29;;;;;;;9.25;5.35;;;;;;;30.57;23.51;100323.52;1743951;82;21008;-67
2023/07/04 11:11:03;;;;;;;7.65;5.08;;;;;;;30.47;23.85;100323.82;1743812;82;21087;-68
2023/07/04 11:13:32;;;;;;;7.08;4.75;;;;;;;30.40;23.75;100322.08;1741985;81;21040;-68
2023/07/04 11:16:04;;;;;;;8.45;5.03;;;;;;;30.40;23.96;100329.14;1743938;82;21067;-67
2023/07/04 11:18:39;;;;;;;7.58;4.97;;;;;;;30.47;23.99;100325.81;1743816;82;21083;-69
2023/07/04 11:21:14;;;;;;;8.23;5.00;;;;;;;30.51;23.96;100324.81;1743787;82;21052;-69
2023/07/04 11:23:51;;;;;;;6.75;4.50;;;;;;;30.51;23.89;100333.30;1743695;82;21497;-67
2023/07/04 11:26:23;;;;;;;11.95;5.90;;;;;;;30.49;23.68;100331.39;1743657;82;21088;-68
2023/07/04 11:29:08;;;;;;;8.45;4.97;;;;;;;30.47;23.83;100329.48;1742244;81;21055;-66
2023/07/04 11:32:05;;;;;;;9.85;5.28;;;;;;;30.51;23.81;100325.40;1743777;82;21020;-67
2023/07/04 11:34:47;;;;;;;7.17;4.87;;;;;;;30.50;23.81;100327.39;1743846;81;21496;-67
2023/07/04 11:37:26;;;;;;;11.33;5.62;;;;;;;30.52;23.68;100332.72;1743795;82;21056;-67
2023/07/04 11:39:57;;;;;;;10.23;5.50;;;;;;;30.50;23.68;100321.73;1743954;81;20985;-67
2023/07/04 11:42:44;;;;;;;10.35;5.12;;;;;;;30.50;24.03;100319.49;1743631;81;21183;-68
2023/07/04 11:45:17;;;;;;;8.73;5.12;;;;;;;30.44;24.46;100311.77;1744289;81;21028;-69